Impacts METAR Board
IDs:

KTIX - Titusville/Space Coa, FL, US

Updated at: 1000 UTC 28 Sep 2021
Potential Impact None Slight Moderate High
Time 27/22Z 27/23Z 28/00Z 28/01Z 28/02Z 28/03Z 28/04Z 28/05Z 28/06Z 28/07Z 28/08Z 28/09Z 28/10Z
Temp86 84 82 82
Dewpt61 63 63 64
Altim30.07 30.07 30.08 30.09
VIS7 7 7 7
CIG-- -- -- --
CoverSCTCLRCLRCLR
FltCatVFRVFRVFRVFR
WX--------
WDir60707080
WSpd10 10 5 5
WGst-- -- -- --
Raw hourly METARs
KTIX 272147Z 06010KT 7SM SCT040 30/16 A3007
KTIX 272247Z 07010KT 7SM CLR 29/17 A3007
KTIX 272347Z 07005KT 7SM CLR 28/17 A3008
KTIX 280047Z 08005KT 7SM CLR 28/18 A3009












Page loaded:  10:06 UTC  |   03:06 AM Pacific  |   04:06 AM Mountain  |   05:06 AM Central  |   06:06 AM Eastern

 

ADVISORIES

FORECASTS

FORECASTS

OBSERVATIONS

USER TOOLS

ABOUT US